Bookmark and Share
Track history (hours):
 

Barfleur

Operator: Brittany Ferries

Last reported at 2014-Apr-19 04:33 UTC. Time now 2014-Apr-19 05:07 UTC.
Position N 50°42' W 001°59'.

Length 158 m; draft 5 m.

Type: Passenger vessel. MMSI: 227289000.

NotesDate/timePositionNaut miles runAvg speedWind from/ knotsBaromVisibWave heightAir tempDewpointWater temp
2014-Apr-19 04:33N 50°42' W 001°59'0 0.0
2014-Apr-19 03:32N 50°42' W 001°59'0 0.0
2014-Apr-19 02:33N 50°42' W 001°59'0 0.0
2014-Apr-19 01:33N 50°42' W 001°59'0 0.0
2014-Apr-19 00:33N 50°42' W 001°59'0 0.0
2014-Apr-18 23:33N 50°42' W 001°59'0 0.0
2014-Apr-18 22:31N 50°42' W 001°59'0 0.0
2014-Apr-18 21:33N 50°42' W 001°59'0 0.1
2014-Apr-18 20:33N 50°42' W 001°60'1212.1
2014-Apr-18 19:34N 50°31' W 001°52'1 0.1
2014-Apr-18 08:33N 50°31' W 001°51'1211.9
2014-Apr-18 07:33N 50°42' W 001°59'1 0.4
2014-Apr-18 06:16N 50°42' W 001°59'0 0.0
2014-Apr-18 05:33N 50°42' W 001°59'0 0.0
2014-Apr-18 04:33N 50°42' W 001°59'0 0.0
2014-Apr-18 03:33N 50°42' W 001°59'0 0.0
2014-Apr-18 02:26N 50°42' W 001°59'0 0.0
2014-Apr-18 01:28N 50°42' W 001°59'0 0.0
2014-Apr-18 00:33N 50°42' W 001°59'0 0.0
2014-Apr-17 23:33N 50°42' W 001°59'0 0.0
2014-Apr-17 22:33N 50°42' W 001°59'0 0.0
2014-Apr-17 21:33N 50°42' W 001°59'0 0.1
2014-Apr-17 20:31N 50°42' W 001°59'1212.5
2014-Apr-17 19:33N 50°31' W 001°52'4118.2
2014-Apr-17 17:18N 49°51' W 001°43'26 3.2
2014-Apr-17 09:14N 50°16' W 001°48'1318.7
2014-Apr-17 08:33N 50°28' W 001°51'1514.3
2014-Apr-17 07:33N 50°42' W 001°58'1 0.7
2014-Apr-17 06:32N 50°42' W 001°59'1 1.3
2014-Apr-17 05:33N 50°42' W 001°57'1312.9
2014-Apr-17 04:33N 50°30' W 001°51'1010.1
2014-Apr-17 03:33N 50°20' W 001°49'10 9.6
2014-Apr-17 02:33N 50°10' W 001°47'10 9.9
2014-Apr-17 01:33N 50°01' W 001°43'1010.0
2014-Apr-17 00:32N 49°51' W 001°39'7 5.7
2014-Apr-16 23:17N 49°44' W 001°37'0 0.1
2014-Apr-16 22:28N 49°44' W 001°37'4 0.4
2014-Apr-16 11:10N 49°40' W 001°36'2018.3
2014-Apr-16 10:04N 50°00' W 001°40'1019.2
2014-Apr-16 09:34N 50°10' W 001°44'1918.7
2014-Apr-16 08:34N 50°28' W 001°50'1514.9
2014-Apr-16 07:33N 50°42' W 001°58'1 1.1
2014-Apr-16 06:32N 50°42' W 001°59'1 1.2
2014-Apr-16 05:32N 50°42' W 001°58'1313.1
2014-Apr-16 04:34N 50°30' W 001°51'1211.7
2014-Apr-16 03:33N 50°18' W 001°52'9 8.7
2014-Apr-16 02:28N 50°09' W 001°52'10 7.9
2014-Apr-16 01:16N 49°59' W 001°52'43 2.3
2014-Apr-15 06:34N 50°42' W 001°59'1 0.5
2014-Apr-15 05:34N 50°42' W 001°59'6 3.2
2014-Apr-15 03:34N 50°40' W 001°50'1 1.5
2014-Apr-15 02:34N 50°38' W 001°49'9 8.9
2014-Apr-15 01:33N 50°32' W 001°59'3 2.7
2014-Apr-15 00:31N 50°33' W 001°54'4 4.0
2014-Apr-14 23:33N 50°35' W 001°49'3 2.6
2014-Apr-14 22:34N 50°36' W 001°46'1 1.2
2014-Apr-14 21:34N 50°37' W 001°45'7 6.6
2014-Apr-14 20:34N 50°39' W 001°55'4 4.2
2014-Apr-14 19:33N 50°42' W 001°59'1414.4
2014-Apr-14 18:34N 50°29' W 001°51'1818.2
2014-Apr-14 17:34N 50°11' W 001°45'20 2.0
2014-Apr-14 07:30N 50°31' W 001°53'1213.1
2014-Apr-14 06:33N 50°42' W 001°59'0 0.1
2014-Apr-14 05:32N 50°42' W 001°59'0 0.0
2014-Apr-13 22:30N 50°42' W 001°59'0 0.0
2014-Apr-13 21:32N 50°42' W 001°59'0 0.1
2014-Apr-13 20:33N 50°42' W 001°59'1414.1
2014-Apr-13 19:33N 50°29' W 001°52'1918.5
2014-Apr-13 18:33N 50°11' W 001°49'11 1.1
2014-Apr-13 09:03N 50°21' W 001°51'1019.0
2014-Apr-13 08:30N 50°32' W 001°53'1212.1
2014-Apr-13 07:33N 50°42' W 001°59'0 0.0
2014-Apr-13 06:32N 50°42' W 001°59'0 0.0
2014-Apr-13 05:29N 50°42' W 001°59'0 0.0
2014-Apr-13 04:33N 50°42' W 001°59'0 0.0
2014-Apr-13 03:33N 50°42' W 001°59'0 0.0
2014-Apr-13 02:33N 50°42' W 001°59'0 0.0
2014-Apr-13 01:33N 50°42' W 001°59'0 0.0
2014-Apr-13 00:25N 50°42' W 001°59'0 0.0
2014-Apr-12 23:30N 50°42' W 001°59'0 0.0
2014-Apr-12 22:32N 50°42' W 001°59'0 0.0
2014-Apr-12 21:33N 50°42' W 001°59'0 0.1
2014-Apr-12 20:34N 50°42' W 001°60'1312.8
2014-Apr-12 19:33N 50°30' W 001°52'2218.0
2014-Apr-12 18:19N 50°09' W 001°44'29 4.3
2014-Apr-12 11:27N 49°40' W 001°37'5216.5
2014-Apr-12 08:19N 50°31' W 001°52'1114.4
2014-Apr-12 07:34N 50°41' W 001°57'2 2.0
2014-Apr-12 06:33N 50°42' W 001°59'0 0.0
2014-Apr-12 05:32N 50°42' W 001°59'0 0.0
2014-Apr-12 04:33N 50°42' W 001°59'0 0.0
2014-Apr-12 03:33N 50°42' W 001°59'0 0.0
2014-Apr-12 02:33N 50°42' W 001°59'0 0.0
2014-Apr-12 01:33N 50°42' W 001°59'0 0.0
2014-Apr-12 00:33N 50°42' W 001°59'0 0.0
2014-Apr-11 23:33N 50°42' W 001°59'0 0.0
2014-Apr-11 22:33N 50°42' W 001°59'0 0.0
2014-Apr-11 21:33N 50°42' W 001°59'0 0.0
2014-Apr-11 20:33N 50°42' W 001°59'1212.2
2014-Apr-11 19:33N 50°32' W 001°51'17 1.7
2014-Apr-11 09:21N 50°14' W 001°49'1518.4
2014-Apr-11 08:33N 50°29' W 001°52'1414.0
2014-Apr-11 07:33N 50°42' W 001°58'1 0.7
2014-Apr-11 06:33N 50°42' W 001°59'0 0.0
2014-Apr-11 05:33N 50°42' W 001°59'0 0.0
2014-Apr-11 04:32N 50°42' W 001°59'0 0.0
2014-Apr-11 03:33N 50°42' W 001°59'0 0.0
2014-Apr-11 02:33N 50°42' W 001°59'0 0.0
2014-Apr-11 01:33N 50°42' W 001°59'0 0.0
2014-Apr-11 00:33N 50°42' W 001°59'0 0.0
2014-Apr-10 23:33N 50°42' W 001°59'0 0.0
2014-Apr-10 22:34N 50°42' W 001°59'0 0.0
2014-Apr-10 21:33N 50°42' W 001°59'0 0.1
2014-Apr-10 20:33N 50°42' W 001°59'1312.8
2014-Apr-10 19:34N 50°31' W 001°51'2018.2
2014-Apr-10 18:29N 50°12' W 001°43'5 0.6
2014-Apr-10 09:08N 50°16' W 001°49'1119.0
2014-Apr-10 08:33N 50°27' W 001°51'1616.0
2014-Apr-10 07:34N 50°42' W 001°57'1 1.3
2014-Apr-10 06:32N 50°42' W 001°59'2 1.8
2014-Apr-10 05:33N 50°41' W 001°57'6 6.0
2014-Apr-10 04:33N 50°38' W 001°50'1 1.3
2014-Apr-10 03:33N 50°38' W 001°52'1 0.9
2014-Apr-10 02:33N 50°38' W 001°53'0 0.3
2014-Apr-10 01:33N 50°38' W 001°54'8 7.9
2014-Apr-10 00:34N 50°30' W 001°52'1312.5
2014-Apr-09 23:33N 50°18' W 001°49'1312.5
2014-Apr-09 22:31N 50°05' W 001°46'1312.5
2014-Apr-09 21:29N 49°52' W 001°43'1311.8
2014-Apr-09 20:21N 49°40' W 001°37'52 4.4
2014-Apr-09 08:28N 50°30' W 001°53'1313.6
2014-Apr-09 07:33N 50°42' W 001°59'0 0.2
2014-Apr-09 06:32N 50°42' W 001°59'2 2.0
2014-Apr-09 05:32N 50°41' W 001°57'  

Dump ship's entire track history

sailing weather and tide predictions

Barfleur — FNIE — position and weather